CEB320 RPLK-RPVD
Flight info
| Callsign | CEB320 |
|---|---|
| Flight time | 0h 48m |
| Altitude | 29000 |
| Route | MASBA2B MASBA W8 BATAY/N0403F280 DCT NANAS |
| Aircraft | A20N/M-SDE2E3FGHIRWXY/LB1 |
Departure
| Time | 2026-05-05 09:34 |
|---|---|
| Airport | Bicol International Airport (RPLK) |
Arrival
| Time | 2026-05-05 10:22 |
|---|---|
| Airport | Sibulan Airport (RPVD) |
| Time | Latitude | Longitude | Altitude | Speed | Heading |
|---|---|---|---|---|---|
| 2026-05-05 09:07 | 13.11271 | 123.68139 | 310 ft | 0 kts | 136° |
| 2026-05-05 09:23 | 13.11279 | 123.68130 | 310 ft | 2 kts | 117° |
| 2026-05-05 09:23 | 13.11286 | 123.68116 | 309 ft | 2 kts | 122° |
| 2026-05-05 09:23 | 13.11294 | 123.68104 | 309 ft | 2 kts | 120° |
| 2026-05-05 09:24 | 13.11302 | 123.68090 | 309 ft | 2 kts | 128° |
| 2026-05-05 09:24 | 13.11314 | 123.68082 | 309 ft | 2 kts | 169° |
| 2026-05-05 09:24 | 13.11329 | 123.68083 | 309 ft | 2 kts | 204° |
| 2026-05-05 09:24 | 13.11337 | 123.68088 | 308 ft | 1 kts | 224° |
| 2026-05-05 09:25 | 13.11341 | 123.68092 | 308 ft | 0 kts | 225° |
| 2026-05-05 09:27 | 13.11340 | 123.68092 | 308 ft | 0 kts | 225° |
| 2026-05-05 09:28 | 13.11332 | 123.68083 | 309 ft | 2 kts | 225° |
| 2026-05-05 09:28 | 13.11313 | 123.68063 | 309 ft | 5 kts | 227° |
| 2026-05-05 09:28 | 13.11284 | 123.68032 | 309 ft | 6 kts | 227° |
| 2026-05-05 09:28 | 13.11253 | 123.67996 | 310 ft | 6 kts | 232° |
| 2026-05-05 09:29 | 13.11232 | 123.67952 | 310 ft | 7 kts | 264° |
| 2026-05-05 09:29 | 13.11260 | 123.67905 | 310 ft | 9 kts | 318° |
| 2026-05-05 09:29 | 13.11310 | 123.67856 | 309 ft | 10 kts | 305° |
| 2026-05-05 09:29 | 13.11288 | 123.67790 | 310 ft | 10 kts | 227° |
| 2026-05-05 09:30 | 13.11240 | 123.67737 | 312 ft | 9 kts | 227° |
| 2026-05-05 09:30 | 13.11198 | 123.67690 | 314 ft | 8 kts | 227° |
| 2026-05-05 09:30 | 13.11160 | 123.67648 | 315 ft | 7 kts | 227° |
| 2026-05-05 09:30 | 13.11126 | 123.67611 | 317 ft | 8 kts | 227° |
| 2026-05-05 09:31 | 13.11079 | 123.67559 | 320 ft | 11 kts | 227° |
| 2026-05-05 09:31 | 13.11014 | 123.67487 | 324 ft | 15 kts | 227° |
| 2026-05-05 09:31 | 13.10936 | 123.67402 | 329 ft | 17 kts | 227° |
| 2026-05-05 09:31 | 13.10842 | 123.67297 | 331 ft | 21 kts | 227° |
| 2026-05-05 09:32 | 13.10740 | 123.67184 | 336 ft | 20 kts | 227° |
| 2026-05-05 09:32 | 13.10644 | 123.67080 | 338 ft | 19 kts | 223° |
| 2026-05-05 09:32 | 13.10519 | 123.67040 | 339 ft | 18 kts | 206° |
| 2026-05-05 09:32 | 13.10514 | 123.66949 | 339 ft | 16 kts | 359° |
| 2026-05-05 09:33 | 13.10566 | 123.66992 | 339 ft | 0 kts | 47° |
| 2026-05-05 09:33 | 13.10569 | 123.66996 | 339 ft | 1 kts | 47° |
| 2026-05-05 09:33 | 13.10708 | 123.67150 | 337 ft | 69 kts | 48° |
| 2026-05-05 09:33 | 13.11223 | 123.67716 | 313 ft | 141 kts | 48° |
| 2026-05-05 09:34 | 13.11942 | 123.68502 | 774 ft | 153 kts | 48° |
| 2026-05-05 09:34 | 13.12635 | 123.69254 | 1630 ft | 143 kts | 50° |
| 2026-05-05 09:34 | 13.13014 | 123.70100 | 2278 ft | 137 kts | 90° |
| 2026-05-05 09:34 | 13.12661 | 123.71036 | 2628 ft | 153 kts | 128° |
| 2026-05-05 09:35 | 13.11655 | 123.71592 | 2925 ft | 178 kts | 160° |
| 2026-05-05 09:35 | 13.09003 | 123.72199 | 3666 ft | 213 kts | 164° |
| 2026-05-05 09:35 | 13.07496 | 123.72527 | 4125 ft | 228 kts | 164° |
| 2026-05-05 09:36 | 13.05862 | 123.72897 | 4551 ft | 247 kts | 164° |
| 2026-05-05 09:36 | 13.04163 | 123.73289 | 5212 ft | 254 kts | 164° |
| 2026-05-05 09:36 | 13.02445 | 123.73688 | 5975 ft | 257 kts | 164° |
| 2026-05-05 09:36 | 13.00683 | 123.74099 | 6734 ft | 259 kts | 164° |
| 2026-05-05 09:37 | 12.98924 | 123.74503 | 7468 ft | 263 kts | 167° |
| 2026-05-05 09:37 | 12.97097 | 123.74631 | 8172 ft | 269 kts | 180° |
| 2026-05-05 09:37 | 12.95189 | 123.74380 | 8646 ft | 284 kts | 188° |
| 2026-05-05 09:37 | 12.93191 | 123.73989 | 9115 ft | 296 kts | 189° |
| 2026-05-05 09:38 | 12.91152 | 123.73571 | 9781 ft | 300 kts | 189° |
| 2026-05-05 09:38 | 12.89089 | 123.73153 | 10434 ft | 304 kts | 189° |
| 2026-05-05 09:38 | 12.86960 | 123.72735 | 10767 ft | 320 kts | 189° |
| 2026-05-05 09:38 | 12.84691 | 123.72292 | 11045 ft | 337 kts | 189° |
| 2026-05-05 09:39 | 12.82357 | 123.71842 | 11358 ft | 351 kts | 189° |
| 2026-05-05 09:39 | 12.79924 | 123.71373 | 11900 ft | 356 kts | 189° |
| 2026-05-05 09:39 | 12.77477 | 123.70901 | 12497 ft | 359 kts | 189° |
| 2026-05-05 09:39 | 12.74990 | 123.70423 | 13074 ft | 362 kts | 189° |
| 2026-05-05 09:40 | 12.72515 | 123.69951 | 13623 ft | 366 kts | 189° |
| 2026-05-05 09:40 | 12.69994 | 123.69469 | 14185 ft | 369 kts | 189° |
| 2026-05-05 09:40 | 12.67427 | 123.68976 | 14735 ft | 372 kts | 189° |
| 2026-05-05 09:40 | 12.64890 | 123.68489 | 15265 ft | 375 kts | 189° |
| 2026-05-05 09:41 | 12.62318 | 123.67993 | 15783 ft | 378 kts | 189° |
| 2026-05-05 09:41 | 12.59712 | 123.67491 | 16299 ft | 380 kts | 189° |
| 2026-05-05 09:41 | 12.57106 | 123.66988 | 16808 ft | 383 kts | 189° |
| 2026-05-05 09:41 | 12.54456 | 123.66478 | 17309 ft | 385 kts | 189° |
| 2026-05-05 09:42 | 12.51814 | 123.65968 | 17799 ft | 388 kts | 189° |
| 2026-05-05 09:42 | 12.49174 | 123.65458 | 18284 ft | 390 kts | 189° |
| 2026-05-05 09:42 | 12.46489 | 123.64939 | 18765 ft | 392 kts | 189° |
| 2026-05-05 09:42 | 12.43786 | 123.64418 | 19234 ft | 394 kts | 189° |
| 2026-05-05 09:43 | 12.41100 | 123.63902 | 19683 ft | 396 kts | 189° |
| 2026-05-05 09:43 | 12.38336 | 123.63493 | 20128 ft | 397 kts | 182° |
| 2026-05-05 09:43 | 12.35583 | 123.63460 | 20561 ft | 398 kts | 175° |
| 2026-05-05 09:43 | 12.32842 | 123.63787 | 20997 ft | 398 kts | 169° |
| 2026-05-05 09:44 | 12.30074 | 123.64265 | 21431 ft | 400 kts | 168° |
| 2026-05-05 09:44 | 12.27331 | 123.64760 | 21845 ft | 402 kts | 168° |
| 2026-05-05 09:44 | 12.24574 | 123.65256 | 22254 ft | 404 kts | 168° |
| 2026-05-05 09:44 | 12.21787 | 123.65754 | 22697 ft | 405 kts | 169° |
| 2026-05-05 09:45 | 12.19012 | 123.66246 | 23222 ft | 403 kts | 169° |
| 2026-05-05 09:45 | 12.16238 | 123.66735 | 23697 ft | 403 kts | 169° |
| 2026-05-05 09:45 | 12.13463 | 123.67223 | 24093 ft | 406 kts | 169° |
| 2026-05-05 09:45 | 12.10681 | 123.67712 | 24476 ft | 408 kts | 169° |
| 2026-05-05 09:46 | 12.07876 | 123.68204 | 24777 ft | 410 kts | 169° |
| 2026-05-05 09:46 | 12.05060 | 123.68697 | 24817 ft | 412 kts | 169° |
| 2026-05-05 09:46 | 12.02209 | 123.69195 | 24824 ft | 411 kts | 169° |
| 2026-05-05 09:46 | 11.99379 | 123.69689 | 24826 ft | 412 kts | 169° |
| 2026-05-05 09:47 | 11.96560 | 123.70183 | 24827 ft | 412 kts | 169° |
| 2026-05-05 09:47 | 11.93724 | 123.70678 | 24828 ft | 411 kts | 169° |
| 2026-05-05 09:47 | 11.90896 | 123.71172 | 24827 ft | 411 kts | 169° |
| 2026-05-05 09:47 | 11.88082 | 123.71663 | 24827 ft | 411 kts | 169° |
| 2026-05-05 09:48 | 11.85242 | 123.72155 | 24827 ft | 411 kts | 169° |
| 2026-05-05 09:48 | 11.82432 | 123.72643 | 24827 ft | 411 kts | 169° |
| 2026-05-05 09:48 | 11.79587 | 123.73137 | 24827 ft | 411 kts | 169° |
| 2026-05-05 09:48 | 11.76756 | 123.73630 | 24827 ft | 412 kts | 169° |
| 2026-05-05 09:49 | 11.73920 | 123.74125 | 24827 ft | 412 kts | 169° |
| 2026-05-05 09:49 | 11.71073 | 123.74622 | 24827 ft | 412 kts | 169° |
| 2026-05-05 09:49 | 11.68252 | 123.75114 | 24827 ft | 413 kts | 169° |
| 2026-05-05 09:49 | 11.65432 | 123.75605 | 24828 ft | 412 kts | 169° |
| 2026-05-05 09:50 | 11.62588 | 123.76101 | 24827 ft | 412 kts | 169° |
| 2026-05-05 09:50 | 11.59731 | 123.76599 | 24827 ft | 413 kts | 169° |
| 2026-05-05 09:50 | 11.56905 | 123.77091 | 24827 ft | 413 kts | 169° |
| 2026-05-05 09:50 | 11.54049 | 123.77589 | 24828 ft | 413 kts | 169° |
| 2026-05-05 09:51 | 11.51213 | 123.78082 | 24829 ft | 412 kts | 169° |
| 2026-05-05 09:51 | 11.48391 | 123.78573 | 24831 ft | 412 kts | 169° |
| 2026-05-05 09:51 | 11.45551 | 123.79067 | 24834 ft | 412 kts | 169° |
| 2026-05-05 09:51 | 11.42708 | 123.79562 | 24835 ft | 412 kts | 169° |
| 2026-05-05 09:52 | 11.39883 | 123.80053 | 24836 ft | 412 kts | 169° |
| 2026-05-05 09:52 | 11.37042 | 123.80547 | 24836 ft | 412 kts | 169° |
| 2026-05-05 09:52 | 11.34207 | 123.81039 | 24835 ft | 413 kts | 169° |
| 2026-05-05 09:52 | 11.31377 | 123.81529 | 24834 ft | 413 kts | 169° |
| 2026-05-05 09:53 | 11.28517 | 123.82025 | 24835 ft | 413 kts | 169° |
| 2026-05-05 09:53 | 11.25695 | 123.82513 | 24835 ft | 413 kts | 169° |
| 2026-05-05 09:53 | 11.22854 | 123.83006 | 24834 ft | 413 kts | 169° |
| 2026-05-05 09:53 | 11.20007 | 123.83500 | 24831 ft | 413 kts | 169° |
| 2026-05-05 09:54 | 11.17188 | 123.83971 | 24830 ft | 413 kts | 172° |
| 2026-05-05 09:54 | 11.14309 | 123.83924 | 24826 ft | 415 kts | 188° |
| 2026-05-05 09:54 | 11.11523 | 123.83066 | 24829 ft | 416 kts | 204° |
| 2026-05-05 09:54 | 11.09016 | 123.81599 | 24839 ft | 418 kts | 211° |
| 2026-05-05 09:55 | 11.06600 | 123.80037 | 24834 ft | 418 kts | 211° |
| 2026-05-05 09:55 | 11.06006 | 123.79649 | 24833 ft | 418 kts | 211° |
| 2026-05-05 09:55 | 11.03551 | 123.78048 | 24832 ft | 418 kts | 211° |
| 2026-05-05 09:55 | 11.01103 | 123.76460 | 24833 ft | 418 kts | 211° |
| 2026-05-05 09:56 | 10.98642 | 123.74870 | 24832 ft | 418 kts | 211° |
| 2026-05-05 09:56 | 10.96173 | 123.73282 | 24833 ft | 419 kts | 211° |
| 2026-05-05 09:56 | 10.93695 | 123.71690 | 24835 ft | 419 kts | 211° |
| 2026-05-05 09:56 | 10.91238 | 123.70114 | 24837 ft | 419 kts | 211° |
| 2026-05-05 09:57 | 10.88749 | 123.68519 | 24848 ft | 419 kts | 211° |
| 2026-05-05 09:57 | 10.86495 | 123.67082 | 24839 ft | 419 kts | 211° |
| 2026-05-05 09:57 | 10.84003 | 123.65496 | 24839 ft | 419 kts | 211° |
| 2026-05-05 09:57 | 10.81541 | 123.63928 | 24841 ft | 419 kts | 211° |
| 2026-05-05 09:58 | 10.79045 | 123.62336 | 24840 ft | 419 kts | 211° |
| 2026-05-05 09:58 | 10.76573 | 123.60757 | 24840 ft | 419 kts | 211° |
| 2026-05-05 09:58 | 10.74094 | 123.59174 | 24839 ft | 419 kts | 211° |
| 2026-05-05 09:58 | 10.71643 | 123.57607 | 24839 ft | 420 kts | 211° |
| 2026-05-05 09:59 | 10.69153 | 123.56016 | 24840 ft | 420 kts | 211° |
| 2026-05-05 09:59 | 10.66664 | 123.54424 | 24840 ft | 420 kts | 211° |
| 2026-05-05 09:59 | 10.64212 | 123.52857 | 24839 ft | 420 kts | 211° |
| 2026-05-05 09:59 | 10.61727 | 123.51269 | 24838 ft | 420 kts | 211° |
| 2026-05-05 10:00 | 10.59232 | 123.49676 | 24840 ft | 420 kts | 211° |
| 2026-05-05 10:00 | 10.56752 | 123.48092 | 24841 ft | 420 kts | 211° |
| 2026-05-05 10:00 | 10.54299 | 123.46526 | 24845 ft | 420 kts | 211° |
| 2026-05-05 10:00 | 10.51818 | 123.44942 | 24849 ft | 420 kts | 211° |
| 2026-05-05 10:01 | 10.49323 | 123.43349 | 24854 ft | 420 kts | 211° |
| 2026-05-05 10:01 | 10.46843 | 123.41766 | 24858 ft | 420 kts | 211° |
| 2026-05-05 10:01 | 10.44371 | 123.40189 | 24863 ft | 420 kts | 211° |
| 2026-05-05 10:01 | 10.41882 | 123.38600 | 24870 ft | 420 kts | 211° |
| 2026-05-05 10:02 | 10.39411 | 123.37024 | 24873 ft | 421 kts | 211° |
| 2026-05-05 10:02 | 10.36940 | 123.35448 | 24880 ft | 421 kts | 211° |
| 2026-05-05 10:02 | 10.34439 | 123.33849 | 24887 ft | 421 kts | 211° |
| 2026-05-05 10:02 | 10.31973 | 123.32261 | 24891 ft | 421 kts | 211° |
| 2026-05-05 10:03 | 10.29486 | 123.30664 | 24675 ft | 424 kts | 211° |
| 2026-05-05 10:03 | 10.26999 | 123.29070 | 23957 ft | 427 kts | 211° |
| 2026-05-05 10:03 | 10.24466 | 123.27451 | 23290 ft | 428 kts | 211° |
| 2026-05-05 10:03 | 10.21948 | 123.25843 | 22648 ft | 428 kts | 210° |
| 2026-05-05 10:04 | 10.19435 | 123.24240 | 22010 ft | 429 kts | 210° |
| 2026-05-05 10:04 | 10.16888 | 123.22618 | 21358 ft | 430 kts | 210° |
| 2026-05-05 10:04 | 10.14362 | 123.21012 | 20726 ft | 429 kts | 210° |
| 2026-05-05 10:04 | 10.11829 | 123.19401 | 20225 ft | 426 kts | 211° |
| 2026-05-05 10:05 | 10.09343 | 123.17818 | 19719 ft | 422 kts | 211° |
| 2026-05-05 10:05 | 10.06873 | 123.16247 | 19212 ft | 418 kts | 211° |
| 2026-05-05 10:05 | 10.04406 | 123.14676 | 18708 ft | 415 kts | 211° |
| 2026-05-05 10:05 | 10.01954 | 123.13115 | 18211 ft | 411 kts | 211° |
| 2026-05-05 10:06 | 9.99545 | 123.11581 | 17728 ft | 407 kts | 211° |
| 2026-05-05 10:06 | 9.97177 | 123.10075 | 17241 ft | 404 kts | 211° |
| 2026-05-05 10:06 | 9.94787 | 123.08553 | 16753 ft | 401 kts | 211° |
| 2026-05-05 10:06 | 9.92442 | 123.07060 | 16274 ft | 398 kts | 211° |
| 2026-05-05 10:07 | 9.90093 | 123.05564 | 15791 ft | 395 kts | 211° |
| 2026-05-05 10:07 | 9.87750 | 123.04079 | 15310 ft | 392 kts | 211° |
| 2026-05-05 10:07 | 9.85463 | 123.02633 | 14837 ft | 388 kts | 211° |
| 2026-05-05 10:07 | 9.83112 | 123.01293 | 14331 ft | 385 kts | 200° |
| 2026-05-05 10:08 | 9.80500 | 123.00846 | 13831 ft | 379 kts | 175° |
| 2026-05-05 10:08 | 9.78891 | 123.01135 | 13524 ft | 375 kts | 161° |
| 2026-05-05 10:08 | 9.76992 | 123.02069 | 13130 ft | 370 kts | 143° |
| 2026-05-05 10:08 | 9.75191 | 123.03896 | 12645 ft | 364 kts | 124° |
| 2026-05-05 10:09 | 9.73763 | 123.06002 | 12180 ft | 361 kts | 123° |
| 2026-05-05 10:09 | 9.72355 | 123.08076 | 11723 ft | 357 kts | 123° |
| 2026-05-05 10:09 | 9.70935 | 123.10149 | 11271 ft | 354 kts | 123° |
| 2026-05-05 10:09 | 9.69541 | 123.12170 | 10827 ft | 351 kts | 123° |
| 2026-05-05 10:10 | 9.68136 | 123.14200 | 10413 ft | 346 kts | 123° |
| 2026-05-05 10:10 | 9.66785 | 123.16145 | 10299 ft | 331 kts | 123° |
| 2026-05-05 10:10 | 9.65495 | 123.17997 | 10199 ft | 316 kts | 123° |
| 2026-05-05 10:10 | 9.64243 | 123.19795 | 10119 ft | 302 kts | 123° |
| 2026-05-05 10:11 | 9.63064 | 123.21486 | 9987 ft | 291 kts | 123° |
| 2026-05-05 10:11 | 9.61901 | 123.23155 | 9637 ft | 289 kts | 123° |
| 2026-05-05 10:11 | 9.60737 | 123.24828 | 9303 ft | 286 kts | 123° |
| 2026-05-05 10:11 | 9.59608 | 123.26449 | 8992 ft | 284 kts | 123° |
| 2026-05-05 10:12 | 9.58473 | 123.28078 | 8663 ft | 282 kts | 123° |
| 2026-05-05 10:12 | 9.57338 | 123.29705 | 8333 ft | 280 kts | 123° |
| 2026-05-05 10:12 | 9.56228 | 123.31297 | 8034 ft | 275 kts | 123° |
| 2026-05-05 10:12 | 9.55129 | 123.32871 | 7711 ft | 268 kts | 123° |
| 2026-05-05 10:13 | 9.54073 | 123.34386 | 7378 ft | 261 kts | 123° |
| 2026-05-05 10:13 | 9.53075 | 123.35815 | 7067 ft | 254 kts | 123° |
| 2026-05-05 10:13 | 9.52063 | 123.37264 | 6757 ft | 248 kts | 122° |
| 2026-05-05 10:13 | 9.51082 | 123.38670 | 6453 ft | 242 kts | 122° |
| 2026-05-05 10:14 | 9.50124 | 123.40041 | 6163 ft | 235 kts | 122° |
| 2026-05-05 10:14 | 9.49185 | 123.41387 | 5971 ft | 235 kts | 122° |
| 2026-05-05 10:14 | 9.48236 | 123.42750 | 5821 ft | 235 kts | 122° |
| 2026-05-05 10:14 | 9.47302 | 123.44091 | 5695 ft | 235 kts | 122° |
| 2026-05-05 10:15 | 9.46359 | 123.45441 | 5526 ft | 232 kts | 122° |
| 2026-05-05 10:15 | 9.45425 | 123.46778 | 5197 ft | 232 kts | 122° |
| 2026-05-05 10:15 | 9.44487 | 123.48120 | 4844 ft | 234 kts | 122° |
| 2026-05-05 10:15 | 9.43551 | 123.49455 | 4565 ft | 231 kts | 122° |
| 2026-05-05 10:16 | 9.42620 | 123.50781 | 4270 ft | 230 kts | 122° |
| 2026-05-05 10:16 | 9.41635 | 123.52062 | 3959 ft | 232 kts | 135° |
| 2026-05-05 10:16 | 9.40232 | 123.52858 | 3667 ft | 235 kts | 163° |
| 2026-05-05 10:16 | 9.38581 | 123.52935 | 3343 ft | 240 kts | 190° |
| 2026-05-05 10:17 | 9.37023 | 123.52317 | 3048 ft | 241 kts | 206° |
| 2026-05-05 10:17 | 9.35534 | 123.51504 | 2809 ft | 240 kts | 207° |
| 2026-05-05 10:17 | 9.34127 | 123.50724 | 2767 ft | 224 kts | 207° |
| 2026-05-05 10:17 | 9.32886 | 123.49833 | 2781 ft | 213 kts | 230° |
| 2026-05-05 10:18 | 9.32350 | 123.48516 | 2661 ft | 195 kts | 265° |
| 2026-05-05 10:18 | 9.32352 | 123.47218 | 2598 ft | 177 kts | 278° |
| 2026-05-05 10:18 | 9.32475 | 123.46008 | 2537 ft | 171 kts | 280° |
| 2026-05-05 10:18 | 9.32593 | 123.44815 | 2454 ft | 166 kts | 278° |
| 2026-05-05 10:19 | 9.32676 | 123.43687 | 2340 ft | 157 kts | 277° |
| 2026-05-05 10:19 | 9.32742 | 123.42590 | 2243 ft | 157 kts | 276° |
| 2026-05-05 10:19 | 9.32801 | 123.41496 | 2030 ft | 156 kts | 276° |
| 2026-05-05 10:19 | 9.32859 | 123.40390 | 1816 ft | 156 kts | 276° |
| 2026-05-05 10:20 | 9.32918 | 123.39303 | 1609 ft | 156 kts | 276° |
| 2026-05-05 10:20 | 9.32979 | 123.38203 | 1403 ft | 156 kts | 276° |
| 2026-05-05 10:20 | 9.33039 | 123.37104 | 1192 ft | 155 kts | 276° |
| 2026-05-05 10:20 | 9.33099 | 123.36021 | 988 ft | 154 kts | 276° |
| 2026-05-05 10:21 | 9.33159 | 123.34937 | 787 ft | 154 kts | 275° |
| 2026-05-05 10:21 | 9.33219 | 123.33863 | 590 ft | 153 kts | 275° |
| 2026-05-05 10:21 | 9.33279 | 123.32784 | 377 ft | 152 kts | 275° |
| 2026-05-05 10:21 | 9.33338 | 123.31730 | 159 ft | 150 kts | 274° |
| 2026-05-05 10:22 | 9.33391 | 123.30690 | 36 ft | 142 kts | 275° |
| 2026-05-05 10:22 | 9.33435 | 123.29919 | 52 ft | 65 kts | 273° |
| 2026-05-05 10:22 | 9.33446 | 123.29705 | 58 ft | 9 kts | 273° |
| 2026-05-05 10:22 | 9.33450 | 123.29638 | 59 ft | 9 kts | 271° |
| 2026-05-05 10:23 | 9.33441 | 123.29585 | 60 ft | 1 kts | 287° |
| 2026-05-05 10:23 | 9.33449 | 123.29591 | 60 ft | 3 kts | 73° |
| 2026-05-05 10:23 | 9.33454 | 123.29625 | 59 ft | 6 kts | 95° |
| 2026-05-05 10:23 | 9.33448 | 123.29676 | 58 ft | 8 kts | 94° |
| 2026-05-05 10:24 | 9.33440 | 123.29715 | 58 ft | 3 kts | 145° |
| 2026-05-05 10:24 | 9.33407 | 123.29706 | 57 ft | 6 kts | 223° |
| 2026-05-05 10:24 | 9.33385 | 123.29683 | 58 ft | 4 kts | 225° |
| 2026-05-05 10:24 | 9.33371 | 123.29653 | 58 ft | 4 kts | 265° |
| 2026-05-05 10:25 | 9.33372 | 123.29622 | 59 ft | 2 kts | 273° |
| 2026-05-05 10:25 | 9.33367 | 123.29611 | 59 ft | 1 kts | 223° |
| 2026-05-05 10:25 | 9.33356 | 123.29610 | 60 ft | 2 kts | 163° |
| 2026-05-05 10:25 | 9.33338 | 123.29622 | 59 ft | 3 kts | 143° |
| 2026-05-05 10:26 | 9.33322 | 123.29634 | 59 ft | 0 kts | 142° |